Surface/Atmospheric History
02/08/2018 19:42  to  2/9/2018 19:42
Change End Date:
To complete the export process:
1) Select all of the data below
2) Copy the data to the clipboard
3) Open a word processor such as Notepad
4) Paste the data into the word processor
5) Save the file

Date/Time (MST), SfStat, SfTemp, PvtTemp, SubTemp, AirTemp, RH, Dewpoint, AvgWindSpeed, GustWindSpeed, WindDirection, PrecipType, PrecipIntenisity
02/09/2018 19:40, Dry , 13.8 , , 28, 3, 88, 0, 9, 11, NE, None, None
02/09/2018 19:35, Dry , 14 , , 28, 3, 89, 1, 9, 11, NE, None, None
02/09/2018 19:25, Dry , 14.5 , , 28, 3, 87, 0, 9, 10, N, None, None
02/09/2018 19:25, Dry , 14.5 , , 28, 3, 87, 0, 9, 10, N, None, None
02/09/2018 19:15, Dry , 15.3 , , 28, 3, 88, 1, 9, 11, NE, None, None
02/09/2018 19:10, Dry , 15.4 , , 28, 3, 87, 1, 10, 11, NE, None, None
02/09/2018 19:05, Dry , 16 , , 28, 4, 87, 1, 9, 10, N, None, None
02/09/2018 18:55, Dry , 16.9 , , 28, 4, 88, 2, 7, 9, N, None, None
02/09/2018 18:55, Dry , 16.9 , , 28, 4, 88, 2, 7, 9, N, None, None
02/09/2018 18:45, Dry , 17.4 , , 28, 4, 88, 2, 7, 11, NE, None, None
02/09/2018 18:40, Dry , 17.8 , , 28, 5, 88, 2, 7, 11, NE, None, None
02/09/2018 18:35, Dry , 18.1 , , 28, 4, 88, 2, 9, 11, NE, None, None
02/09/2018 18:25, Dry , 19.2 , , 28, 5, 88, 2, 9, 11, N, None, None
02/09/2018 18:25, Dry , 19.2 , , 28, 5, 88, 2, 9, 11, N, None, None
02/09/2018 18:15, Dry , 20.1 , , 28, 5, 88, 2, 9, 12, N, None, None
02/09/2018 18:10, Dry , 20.5 , , 28, 6, 89, 3, 10, 12, N, None, None
02/09/2018 18:05, Dry , 21 , , 28, 6, 89, 4, 10, 11, NE, None, None
02/09/2018 17:55, Dry , 21.6 , , 28, 6, 89, 3, 9, 10, N, None, None
02/09/2018 17:55, Dry , 21.6 , , 28, 6, 89, 3, 9, 10, N, None, None
02/09/2018 17:45, Dry , 22.3 , , 28, 6, 89, 4, 8, 10, N, None, None
02/09/2018 17:40, Dry , 22.3 , , 29, 7, 89, 4, 8, 12, N, None, None
02/09/2018 17:35, Dry , 22.5 , , 29, 7, 89, 4, 10, 12, N, None, None
02/09/2018 17:25, Dry , 23 , , 29, 7, 87, 4, 11, 12, N, None, None
02/09/2018 17:25, Dry , 23 , , 29, 7, 87, 4, 10, 12, N, None, None
02/09/2018 17:15, Dry , 24.6 , , 29, 8, 88, 5, 9, 9, N, None, None
02/09/2018 17:10, Dry , 25 , , 28, 8, 87, 5, 8, 9, N, None, None
02/09/2018 17:05, Dry , 25.5 , , 28, 8, 87, 5, 8, 9, N, None, None
02/09/2018 16:55, Dry , 25.9 , , 28, 9, 86, 5, 6, 7, N, None, None
02/09/2018 16:55, Dry , 25.9 , , 28, 9, 86, 5, 6, 7, N, None, None
02/09/2018 16:45, Dry , 25.7 , , 28, 11, 89, 8, 7, 12, N, None, None
02/09/2018 16:40, Dry , 26.2 , , 28, 10, 88, 7, 7, 12, N, None, None
02/09/2018 16:34, Dry , 27.5 , , 28, 9, 87, 6, 9, 10, NE, None, None
02/09/2018 16:25, Dry , 31.5 , , 28, 10, 86, 6, 5, 6, N, None, None
02/09/2018 16:24, Dry , 31.8 , , 28, 10, 86, 7, 5, 6, N, None, None
02/09/2018 16:14, Dry , 32.9 , , 28, 10, 85, 7, 5, 7, N, None, None
02/09/2018 16:10, Dry , 33.8 , , 28, 11, 87, 8, 6, 7, NW, None, None
02/09/2018 16:04, Dry , 34.7 , , 28, 11, 86, 7, 7, 9, N, None, None
02/09/2018 15:55, Dry , 34.9 , , 28, 10, 87, 7, 9, 10, N, None, None
02/09/2018 15:54, Dry , 34.9 , , 28, 10, 87, 7, 9, 10, N, None, None
02/09/2018 15:44, Dry , 35.6 , , 28, 9, 86, 6, 7, 9, N, None, None
02/09/2018 15:40, Dry , 36.1 , , 28, 10, 86, 6, 8, 11, N, None, None
02/09/2018 15:34, Dry , 36.3 , , 28, 10, 85, 7, 10, 11, N, None, None
02/09/2018 15:25, Dry , 37.4 , , 28, 10, 88, 8, 6, 7, N, None, None
02/09/2018 15:24, Dry , 37.4 , , 28, 10, 87, 7, 6, 7, N, None, None
02/09/2018 15:14, Dry , 36.3 , , 28, 9, 87, 6, 7, 10, N, None, None
02/09/2018 15:10, Dry , 35.6 , , 28, 9, 87, 6, 8, 10, N, None, None
02/09/2018 15:04, Dry , 34.5 , , 28, 8, 87, 5, 9, 10, N, None, None
02/09/2018 14:55, Dry , 30.6 , , 28, 7, 87, 4, 6, 7, N, None, None
02/09/2018 14:54, Dry , 30 , , 28, 7, 87, 4, 5, 7, N, None, None
02/09/2018 14:44, Dry , 29.8 , , 28, 7, 87, 4, 7, 11, N, None, None
02/09/2018 14:40, Dry , 30.7 , , 28, 8, 88, 5, 9, 14, NE, None, None
02/09/2018 14:34, Dry , 30 , , 28, 8, 88, 5, 12, 16, N, None, None
02/09/2018 14:25, Dry , 31.3 , , 28, 7, 88, 4, 13, 16, NE, None, None
02/09/2018 14:24, Dry , 31.5 , , 28, 7, 88, 4, 12, 16, N, None, None
02/09/2018 14:14, Dry , 33.3 , , 27, 9, 87, 6, 12, 15, N, None, None
02/09/2018 14:10, Dry , 35.1 , , 27, 10, 88, 7, 13, 15, N, None, None
02/09/2018 14:04, Dry , 37.2 , , 27, 11, 89, 8, 13, 16, N, None, None
02/09/2018 13:55, Dry , 41.9 , , 27, 12, 89, 9, 12, 15, N, None, None
02/09/2018 13:54, Dry , 41.5 , , 27, 12, 89, 9, 14, 15, N, None, None
02/09/2018 13:44, Dry , 45.5 , , 27, 13, 89, 11, 12, 14, N, None, None
02/09/2018 13:40, Dry , 44.4 , , 27, 13, 89, 11, 13, 14, N, None, None
02/09/2018 13:33, Dry , 44.1 , , 27, 14, 88, 11, 10, 11, N, None, None
02/09/2018 13:25, Dry , 43.7 , , 27, 16, 94, 14, 7, 9, N, None, None
02/09/2018 13:23, Dry , 42.6 , , 27, 15, 93, 13, 6, 7, N, None, None
02/09/2018 13:13, Dry , 41.7 , , 27, 12, 90, 10, 4, 7, N, None, None
02/09/2018 13:10, Dry , 41.7 , , 27, 12, 90, 10, 4, 7, N, None, None
02/09/2018 13:03, Dry , 42.3 , , 27, 13, 90, 10, 6, 9, N, None, None
02/09/2018 12:55, Dry , 42.8 , , 26, 12, 90, 10, 6, 9, N, None, None
02/09/2018 12:53, Dry , 43 , , 26, 12, 90, 10, 6, 9, N, None, None
02/09/2018 12:43, Dry , 41.2 , , 26, 11, 89, 8, 6, 8, N, None, None
02/09/2018 12:40, Dry , 38.5 , , 26, 11, 88, 8, 6, 8, N, None, None
02/09/2018 12:33, Dry , 37.2 , , 26, 11, 89, 9, 7, 7, N, None, None
02/09/2018 12:25, Dry , 35.2 , , 26, 10, 89, 8, 6, 7, N, None, None
02/09/2018 12:23, Dry , 34.5 , , 26, 10, 89, 7, 6, 7, N, None, None
02/09/2018 12:13, Dry , 34 , , 26, 11, 89, 8, 6, 9, N, None, None
02/09/2018 12:10, Dry , 33.8 , , 26, 11, 90, 9, 6, 11, NW, None, None
02/09/2018 12:03, Dry , 34.7 , , 26, 12, 91, 10, 9, 11, NW, None, None
02/09/2018 11:55, Dry , 36.9 , , 26, 11, 88, 8, 7, 9, N, None, None
02/09/2018 11:53, Dry , 37 , , 26, 11, 88, 9, 7, 10, NW, None, None
02/09/2018 11:43, Dry , 37.9 , , 26, 13, 92, 11, 9, 11, N, None, None
02/09/2018 11:40, Dry , 38.1 , , 26, 11, 90, 9, 9, 10, N, None, None
02/09/2018 11:33, Dry , 35.4 , , 26, 10, 89, 7, 9, 9, N, None, None
02/09/2018 11:25, Dry , 36.1 , , 26, 9, 88, 6, 9, 9, N, None, None
02/09/2018 11:23, Dry , 35.6 , , 26, 9, 88, 6, 9, 9, N, None, None
02/09/2018 11:13, Dry , 32.9 , , 26, 8, 88, 5, 7, 9, N, None, None
02/09/2018 11:10, Dry , 32.2 , , 26, 7, 87, 4, 6, 7, N, None, None
02/09/2018 11:03, Dry , 31.1 , , 26, 8, 87, 5, 5, 6, NW, None, None
02/09/2018 10:55, Dry , 30.6 , , 26, 10, 90, 7, 2, 5, NW, None, None
02/09/2018 10:52, Dry , 30.2 , , 26, 9, 89, 6, 3, 5, NW, None, None
02/09/2018 10:42, Dry , 29.1 , , 26, 8, 90, 6, 1, 6, N, None, None
02/09/2018 10:40, Dry , 28 , , 26, 7, 89, 4, 2, 6, E, None, None
02/09/2018 10:32, Dry , 25.3 , , 26, 5, 87, 2, 2, 7, NE, None, None
02/09/2018 10:25, Ice Watch , 25 , , 26, 5, 86, 2, 6, 9, N, None, None
02/09/2018 10:22, Dry , 26.4 , , 26, 6, 86, 2, 7, 9, N, None, None
02/09/2018 10:12, Ice Watch , 24.3 , , 26, 5, 87, 2, 6, 7, N, None, None
02/09/2018 10:10, Ice Watch , 23.7 , , 26, 5, 87, 2, 5, 6, NE, None, None
02/09/2018 10:02, Ice Watch , 22.5 , , 26, 5, 87, 2, 4, 5, N, None, None
02/09/2018 09:55, Ice Watch , 21.4 , , 26, 4, 87, 1, 4, 10, N, None, None
02/09/2018 09:52, Dry , 20.5 , , 26, 4, 87, 1, 6, 12, N, None, None
02/09/2018 09:42, Dry , 18.5 , , 26, 4, 86, 1, 11, 14, N, None, None
02/09/2018 09:40, Dry , 18.3 , , 26, 4, 86, 0, 13, 16, N, None, None
02/09/2018 09:32, Dry , 18.1 , , 26, 3, 86, 0, 13, 16, N, None, None
02/09/2018 09:25, Dry , 19.9 , , 26, 3, 86, 0, 15, 16, N, None, None
02/09/2018 09:22, Dry , 19.4 , , 27, 3, 86, 0, 15, 16, N, None, None
02/09/2018 09:12, Dry , 17.6 , , 27, 2, 86, -1, 8, 12, N, None, None
02/09/2018 09:10, Dry , 17.6 , , 27, 2, 86, -1, 8, 13, N, None, None
02/09/2018 09:02, Dry , 15.6 , , 27, 1, 86, -2, 12, 13, N, None, None
02/09/2018 08:55, Dry , 14.2 , , 27, 1, 85, -3, 12, 12, N, None, None
02/09/2018 08:52, Dry , 14.2 , , 27, 1, 85, -2, 12, 12, N, None, None
02/09/2018 08:42, Ice Warning , 13.1 , , 27, 1, 86, -2, 7, 10, N, None, None
02/09/2018 08:40, Ice Warning , 12.9 , , 27, 2, 86, -1, 7, 11, N, None, None
02/09/2018 08:32, Ice Warning , 13.1 , , 27, 2, 86, -1, 10, 12, NE, None, None
02/09/2018 08:25, Ice Warning , 12.9 , , 27, 2, 86, -1, 9, 13, N, None, None
02/09/2018 08:22, Ice Warning , 13.1 , , 27, 2, 86, -1, 11, 13, NE, None, None
02/09/2018 08:12, Ice Warning , 13.1 , , 27, 2, 86, -1, 9, 14, N, None, None
02/09/2018 08:10, Ice Warning , 12.6 , , 27, 2, 86, -1, 10, 14, N, None, None
02/09/2018 08:02, Ice Warning , 12.2 , , 27, 1, 86, -2, 12, 14, N, None, None
02/09/2018 07:55, Ice Warning , 12.7 , , 28, 1, 85, -2, 11, 13, NE, None, None
02/09/2018 07:52, Ice Warning , 12.9 , , 28, 2, 86, -2, 7, 14, N, None, None
02/09/2018 07:41, Ice Warning , 13.1 , , 28, 2, 87, -1, 11, 12, N, None, None
02/09/2018 07:40, Ice Warning , 13.3 , , 28, 2, 86, -1, 11, 12, NE, None, None
02/09/2018 07:31, Ice Warning , 14.7 , , 28, 3, 86, 0, 9, 11, N, None, None
02/09/2018 07:25, Ice Warning , 16 , , 28, 4, 87, 1, 9, 11, NE, None, None
02/09/2018 07:21, Ice Warning , 16 , , 28, 4, 87, 1, 6, 12, N, None, None
02/09/2018 07:11, Ice Warning , 16 , , 28, 5, 87, 2, 10, 16, N, Yes,
02/09/2018 07:10, Ice Warning , 15.8 , , 28, 5, 88, 2, 12, 16, N, Yes,
02/09/2018 07:01, Dry , 15.8 , , 28, 5, 88, 2, 13, 16, N, None, None
02/09/2018 06:51, Dry , 16.3 , , 28, 5, 87, 2, 11, 12, N, None, None
02/09/2018 06:41, Dry , 16.9 , , 28, 6, 88, 3, 10, 11, N, None, None
02/09/2018 06:40, Dry , 17.1 , , 28, 6, 88, 3, 10, 11, N, None, None
02/09/2018 06:31, Dry , 17.2 , , 28, 6, 88, 3, 6, 6, N, None, None
02/09/2018 06:25, Dry , 17.4 , , 28, 6, 88, 3, 5, 11, N, None, None
02/09/2018 06:21, Dry , 17.4 , , 28, 6, 88, 3, 7, 11, N, None, None
02/09/2018 06:11, Dry , 17.2 , , 28, 7, 89, 4, 9, 14, N, None, None
02/09/2018 06:10, Dry , 17.2 , , 28, 7, 89, 4, 9, 14, N, None, None
02/09/2018 06:01, Dry , 17.2 , , 29, 7, 89, 4, 12, 14, N, None, None
02/09/2018 05:55, Dry , 17.4 , , 29, 7, 89, 4, 11, 13, N, None, None
02/09/2018 05:51, Ice Warning , 17.6 , , 29, 7, 89, 4, 11, 13, N, None, None
02/09/2018 05:41, Ice Watch , 17.8 , , 29, 8, 89, 5, 11, 16, N, None, None
02/09/2018 05:40, Ice Watch , 17.6 , , 29, 8, 89, 5, 11, 16, N, None, None
02/09/2018 05:31, Ice Watch , 17.8 , , 29, 8, 89, 6, 14, 15, N, None, None
02/09/2018 05:25, Ice Watch , 18 , , 29, 9, 90, 6, 12, 15, N, None, None
02/09/2018 05:21, Ice Watch , 18 , , 29, 9, 90, 6, 12, 16, N, None, None
02/09/2018 05:11, Ice Watch , 18.3 , , 29, 9, 90, 7, 14, 17, N, None, None
02/09/2018 05:10, Ice Watch , 18.3 , , 29, 9, 90, 7, 14, 17, N, None, None
02/09/2018 05:01, Ice Watch , 18.9 , , 29, 10, 90, 7, 14, 16, N, None, None
02/09/2018 04:55, Ice Watch , 19.2 , , 29, 10, 90, 8, 12, 16, NE, None, None
02/09/2018 04:50, Ice Watch , 19.2 , , 29, 10, 91, 8, 12, 17, N, None, None
02/09/2018 04:40, Ice Watch , 20.1 , , 29, 11, 91, 9, 13, 16, N, None, None
02/09/2018 04:40, Ice Watch , 20.1 , , 29, 11, 91, 9, 13, 16, N, None, None
02/09/2018 04:30, Ice Watch , 20.8 , , 29, 11, 91, 9, 11, 16, NE, None, None
02/09/2018 04:25, Ice Watch , 21.4 , , 29, 12, 91, 10, 11, 15, N, None, None
02/09/2018 04:20, Ice Watch , 22.3 , , 29, 14, 92, 12, 12, 15, N, None, None
02/09/2018 04:10, Ice Watch , 22.8 , , 29, 17, 93, 15, 11, 17, NE, None, None
02/09/2018 04:10, Ice Watch , 22.8 , , 29, 17, 93, 15, 11, 17, NE, None, None
02/09/2018 04:00, Frost , 23.4 , , 29, 25, , 26, 15, 17, S, None, None
02/09/2018 03:55, Frost , 23.5 , , 29, 25, , 26, 16, 18, SE, None, None
02/09/2018 03:50, Frost , 23.5 , , 29, 25, , 26, 16, 18, SE, None, None
02/09/2018 03:40, Frost , 23.7 , , 29, 25, , 26, 14, 17, SE, None, None
02/09/2018 03:40, Frost , 23.7 , , 29, 25, , 26, 14, 17, SE, None, None
02/09/2018 03:30, Frost , 23.7 , , 29, 25, , 26, 15, 19, S, None, None
02/09/2018 03:25, Frost , 23.9 , , 29, 25, , 26, 14, 19, SE, None, None
02/09/2018 03:20, Frost , 24.1 , , 29, 25, , 26, 14, 21, S, None, None
02/09/2018 03:10, Frost , 24.4 , , 29, 25, , 26, 14, 18, S, None, None
02/09/2018 03:10, Frost , 24.4 , , 29, 25, , 26, 14, 18, S, None, None
02/09/2018 03:00, Frost , 24.6 , , 29, 25, , 25, 16, 17, S, None, None
02/09/2018 02:55, Frost , 24.8 , , 29, 25, , 26, 14, 16, S, None, None
02/09/2018 02:50, Frost , 24.4 , , 29, 25, 100, 25, 11, 19, SE, None, None
02/09/2018 02:40, Frost , 24.6 , , 29, 26, 100, 26, 15, 20, SE, None, None
02/09/2018 02:40, Frost , 24.6 , , 29, 26, 100, 26, 15, 20, SE, None, None
02/09/2018 02:30, Frost , 24.6 , , 29, 26, , 27, 16, 22, SE, None, None
02/09/2018 02:25, Frost , 24.8 , , 29, 26, , 27, 16, 19, SE, None, None
02/09/2018 02:20, Frost , 25 , , 29, 26, , 27, 18, 19, SE, None, None
02/09/2018 02:10, Frost , 25.3 , , 29, 26, , 27, 18, 20, SE, None, None
02/09/2018 02:10, Frost , 25.3 , , 29, 26, , 27, 18, 20, SE, None, None
02/09/2018 02:00, Frost , 25.5 , , 29, 26, , 27, 16, 17, S, None, None
02/09/2018 01:55, Frost , 25.5 , , 29, 26, , 28, 13, 17, SE, None, None
02/09/2018 01:50, Frost , 25.5 , , 29, 27, , 28, 12, 16, SE, None, None
02/09/2018 01:40, Frost , 25.5 , , 29, 26, , 28, 15, 17, S, None, None
02/09/2018 01:39, Frost , 25.5 , , 30, 26, , 28, 14, 17, S, None, None
02/09/2018 01:29, Frost , 25.5 , , 30, 26, , 27, 16, 17, SE, None, None
02/09/2018 01:25, Frost , 25.5 , , 30, 26, , 28, 15, 16, SE, None, None
02/09/2018 01:19, Frost , 25.7 , , 30, 26, , 28, 13, 16, SE, None, None
02/09/2018 01:10, Frost , 25.9 , , 30, 26, , 27, 15, 18, SE, None, None
02/09/2018 01:09, Frost , 25.9 , , 30, 26, , 27, 15, 18, SE, None, None
02/09/2018 00:59, Frost , 26.1 , , 30, 26, , 28, 16, 18, SE, None, None
02/09/2018 00:55, Frost , 26.2 , , 30, 26, , 28, 15, 18, SE, None, None
02/09/2018 00:49, Frost , 26.2 , , 30, 26, , 28, 16, 17, SE, None, None
02/09/2018 00:40, Frost , 26.2 , , 30, 26, , 28, 12, 15, SE, None, None
02/09/2018 00:39, Frost , 26.2 , , 30, 26, , 28, 12, 15, S, None, None
02/09/2018 00:29, Frost , 25.7 , , 30, 26, , 28, 14, 16, SE, None, None
02/09/2018 00:25, Frost , 25.5 , , 30, 26, , 28, 9, 15, S, None, None
02/09/2018 00:19, Frost , 25.3 , , 30, 26, , 28, 12, 16, SE, None, None
02/09/2018 00:10, Frost , 24.8 , , 30, 26, , 28, 13, 16, SE, None, None
02/09/2018 00:09, Frost , 24.8 , , 30, 26, , 28, 15, 16, SE, None, None
02/08/2018 23:59, Frost , 24.6 , , 30, 26, 100, 27, 16, 19, SE, None, None
02/08/2018 23:55, Frost , 24.4 , , 30, 27, 98, 26, 14, 19, SE, None, None
02/08/2018 23:49, Frost , 24.6 , , 30, 26, , 28, 13, 17, SE, None, None
02/08/2018 23:40, Frost , 24.4 , , 30, 26, , 27, 14, 17, S, None, None
02/08/2018 23:39, Frost , 24.4 , , 30, 26, , 27, 13, 20, S, None, None
02/08/2018 23:29, Frost , 24.3 , , 30, 27, , 28, 16, 19, SE, None, None
02/08/2018 23:25, Frost , 24.3 , , 30, 26, , 28, 17, 19, SE, None, None
02/08/2018 23:19, Frost , 24.1 , , 30, 26, , 27, 17, 19, S, None, None
02/08/2018 23:10, Frost , 23.7 , , 30, 26, , 27, 17, 19, SE, None, None
02/08/2018 23:09, Frost , 23.5 , , 30, 25, , 26, 17, 19, SE, None, None
02/08/2018 22:59, Frost , 23.9 , , 30, 25, 97, 25, 11, 15, SE, None, None
02/08/2018 22:55, Frost , 23.9 , , 30, 26, 95, 24, 11, 15, S, None, None
02/08/2018 22:49, Frost , 24.1 , , 30, 27, 99, 27, 13, 15, SE, None, None
02/08/2018 22:40, Frost , 23.9 , , 31, 25, 99, 25, 7, 12, SW, None, None
02/08/2018 22:38, Frost , 23.9 , , 31, 25, 100, 25, 9, 12, S, None, None
02/08/2018 22:28, Ice Watch , 24.4 , , 31, 25, 97, 24, 8, 12, SW, None, None
02/08/2018 22:25, Frost , 24.6 , , 31, 26, 97, 25, 9, 13, SE, None, None
02/08/2018 22:18, Ice Watch , 24.6 , , 31, 25, 94, 24, 9, 14, S, None, None
02/08/2018 22:10, Frost , 24.8 , , 31, 26, , 27, 9, 11, SW, None, None
02/08/2018 22:08, Frost , 24.6 , , 31, 25, 100, 25, 9, 11, SW, None, None
02/08/2018 21:58, Ice Watch , 24.4 , , 31, 23, 97, 22, 9, 14, S, None, None
02/08/2018 21:55, Frost , 24.6 , , 31, 25, 99, 25, 10, 14, SW, None, None
02/08/2018 21:48, Ice Watch , 24.8 , , 31, 24, 100, 24, 7, 12, SW, None, None
02/08/2018 21:40, Frost , 25 , , 31, 25, 99, 25, 11, 13, SW, None, None
02/08/2018 21:38, Ice Watch , 25.2 , , 31, 25, 97, 25, 7, 13, SW, None, None
02/08/2018 21:28, Ice Watch , 25.2 , , 31, 24, 96, 23, 11, 12, SE, None, None
02/08/2018 21:25, Ice Watch , 25.3 , , 31, 25, 99, 25, 6, 12, S, None, None
02/08/2018 21:18, Ice Watch , 25.2 , , 31, 24, 100, 25, 9, 12, SE, None, None
02/08/2018 21:10, Ice Watch , 25.3 , , 31, 25, 93, 23, 9, 14, S, None, None
02/08/2018 21:08, Ice Watch , 25.7 , , 31, 26, 90, 24, 8, 14, S, None, None
02/08/2018 20:58, Ice Watch , 25.9 , , 31, 26, 92, 24, 6, 10, SW, None, None
02/08/2018 20:55, Frost , 26.1 , , 31, 28, 94, 26, 7, 14, SW, None, None
02/08/2018 20:48, Ice Watch , 26.1 , , 31, 27, 96, 26, 12, 14, S, None, None
02/08/2018 20:40, Ice Watch , 26.2 , , 31, 28, 91, 26, 9, 16, S, None, None
02/08/2018 20:38, Ice Watch , 26.6 , , 31, 29, 90, 26, 11, 16, S, None, None
02/08/2018 20:28, Frost , 26.8 , , 31, 30, 92, 28, 17, 21, SE, None, None
02/08/2018 20:25, Frost , 27 , , 31, 30, 90, 27, 16, 21, S, None, None
02/08/2018 20:18, Ice Watch , 27 , , 31, 29, 93, 27, 17, 23, SE, None, None
02/08/2018 20:10, Frost , 27 , , 31, 29, 91, 27, 20, 23, SE, None, None
02/08/2018 20:08, Frost , 27.1 , , 31, 30, 93, 28, 20, 24, SE, None, None
02/08/2018 19:58, Ice Watch , 27.1 , , 31, 29, 94, 28, 19, 25, S, None, None
02/08/2018 19:55, Ice Watch , 27.1 , , 31, 29, 91, 27, 17, 25, SE, None, None
02/08/2018 19:48, Frost , 27.1 , , 31, 29, 92, 28, 21, 23, SE, None, None
Change End Date:

Copyright © 1998-2015 Vaisala, Inc.
All Rights Reserved
Send comments about the data to:
SCAN Web ® is a registered trademark of Vaisala, Inc.
SCAN Web Version 6.0